Time;durP1;ratioP1;P1;durP2;ratioP2;P2;SDS_P1;SDS_P2;PMS_P1;PMS_P2;Temp;Humidity;BMP_temperature;BMP_pressure;BME280_temperature;BME280_humidity;BME280_pressure;Samples;Min_cycle;Max_cycle;Signal;HPM_P1;HPM_P2
2022/11/17 00:00:42;;;;;;;;;32.00;28.50;;;;;;;;114942;1207;25486;-59
2022/11/17 00:03:14;;;;;;;;;29.00;22.50;;;;;;;;114959;1203;25332;-60
2022/11/17 00:05:43;;;;;;;;;32.00;25.00;;;;;;;;114917;1203;25568;-59
2022/11/17 00:08:12;;;;;;;;;35.00;27.00;;;;;;;;114966;1197;26677;-60
2022/11/17 00:10:40;;;;;;;;;31.00;28.00;;;;;;;;114967;1199;24963;-59
2022/11/17 00:15:56;;;;;;;;;38.00;28.50;;;;;;;;114907;1200;25192;-59
2022/11/17 00:21:18;;;;;;;;;30.00;24.00;;;;;;;;114946;1203;26313;-61
2022/11/17 00:23:47;;;;;;;;;27.50;22.50;;;;;;;;114880;1208;24737;-60
2022/11/17 00:26:18;;;;;;;;;25.00;24.00;;;;;;;;114859;1201;25612;-59
2022/11/17 00:28:50;;;;;;;;;39.50;27.00;;;;;;;;114977;1203;25458;-59
2022/11/17 00:34:06;;;;;;;;;31.00;24.50;;;;;;;;114920;1208;25395;-59
2022/11/17 00:36:35;;;;;;;;;31.00;26.00;;;;;;;;114951;1199;25988;-59
2022/11/17 00:39:04;;;;;;;;;31.00;23.50;;;;;;;;114916;1200;25029;-60
2022/11/17 00:41:32;;;;;;;;;36.50;29.00;;;;;;;;115010;1203;25175;-60
2022/11/17 00:44:01;;;;;;;;;13.50;13.50;;;;;;;;114891;1206;25200;-59
2022/11/17 00:46:29;;;;;;;;;36.00;24.50;;;;;;;;114970;1200;25013;-65
2022/11/17 00:48:58;;;;;;;;;30.00;26.50;;;;;;;;114947;1195;24940;-68
2022/11/17 00:51:26;;;;;;;;;34.00;29.00;;;;;;;;114932;1200;24715;-69
2022/11/17 00:53:55;;;;;;;;;31.00;21.33;;;;;;;;114916;1198;25890;-68
2022/11/17 00:56:24;;;;;;;;;24.50;19.00;;;;;;;;114951;1197;25580;-68
2022/11/17 00:58:52;;;;;;;;;26.00;22.00;;;;;;;;114947;1200;25424;-68
2022/11/17 01:01:21;;;;;;;;;30.00;29.00;;;;;;;;114978;1203;26297;-66
2022/11/17 01:03:49;;;;;;;;;32.50;26.00;;;;;;;;114765;1200;25375;-59
2022/11/17 01:06:19;;;;;;;;;26.00;21.00;;;;;;;;114718;1208;25633;-59
2022/11/17 01:08:47;;;;;;;;;26.50;22.50;;;;;;;;114894;1200;25308;-60
2022/11/17 01:11:17;;;;;;;;;36.00;24.00;;;;;;;;114871;1200;26086;-68
2022/11/17 01:13:46;;;;;;;;;29.00;24.00;;;;;;;;114929;1203;25300;-59
2022/11/17 01:16:17;;;;;;;;;26.00;22.50;;;;;;;;114923;1200;25429;-58
2022/11/17 01:18:47;;;;;;;;;26.50;19.50;;;;;;;;114953;1199;25165;-59
2022/11/17 01:21:19;;;;;;;;;26.00;23.67;;;;;;;;114937;1208;24986;-58
2022/11/17 01:23:48;;;;;;;;;22.00;18.33;;;;;;;;114897;1208;25142;-59
2022/11/17 01:26:19;;;;;;;;;28.50;22.50;;;;;;;;114911;1200;25103;-58
2022/11/17 01:28:48;;;;;;;;;27.00;20.00;;;;;;;;114936;1197;24782;-57
2022/11/17 01:31:25;;;;;;;;;28.50;25.50;;;;;;;;114974;1197;24827;-56
2022/11/17 01:33:54;;;;;;;;;29.50;24.00;;;;;;;;114924;1208;25605;-56
2022/11/17 01:36:25;;;;;;;;;25.50;24.00;;;;;;;;114948;1200;25578;-56
2022/11/17 01:38:54;;;;;;;;;24.00;23.50;;;;;;;;114933;1203;25519;-56
2022/11/17 01:41:27;;;;;;;;;28.67;23.33;;;;;;;;114875;1196;24880;-56
2022/11/17 01:43:58;;;;;;;;;21.50;17.00;;;;;;;;114929;1203;25043;-56
2022/11/17 01:46:37;;;;;;;;;28.50;23.00;;;;;;;;114948;1199;25568;-56
2022/11/17 01:49:14;;;;;;;;;32.00;25.50;;;;;;;;114945;1203;25381;-56
2022/11/17 01:51:46;;;;;;;;;32.00;25.00;;;;;;;;114904;1203;25253;-56
2022/11/17 01:54:18;;;;;;;;;30.00;23.50;;;;;;;;114921;1207;24927;-56
2022/11/17 01:56:48;;;;;;;;;32.00;25.50;;;;;;;;114840;1203;25348;-57
2022/11/17 01:59:28;;;;;;;;;26.00;23.00;;;;;;;;114945;1200;25334;-56
2022/11/17 02:01:56;;;;;;;;;25.50;20.00;;;;;;;;114901;1203;25735;-57
2022/11/17 02:04:28;;;;;;;;;31.00;21.00;;;;;;;;114932;1203;24997;-56
2022/11/17 02:07:10;;;;;;;;;34.00;26.50;;;;;;;;114950;1203;24852;-57
2022/11/17 02:09:40;;;;;;;;;31.00;28.00;;;;;;;;114955;1197;24668;-57
2022/11/17 02:12:12;;;;;;;;;29.00;24.00;;;;;;;;114882;1203;25516;-57
2022/11/17 02:14:40;;;;;;;;;37.50;26.00;;;;;;;;114889;1200;25254;-57
2022/11/17 02:17:10;;;;;;;;;31.00;26.00;;;;;;;;114888;1200;24919;-57
2022/11/17 02:19:43;;;;;;;;;31.00;21.00;;;;;;;;114913;1206;25821;-57
2022/11/17 02:22:56;;;;;;;;;29.00;24.00;;;;;;;;114918;1203;25544;-57
2022/11/17 02:25:49;;;;;;;;;31.00;22.00;;;;;;;;114853;1208;25193;-58
2022/11/17 02:28:39;;;;;;;;;28.00;24.00;;;;;;;;114928;1203;25625;-57
2022/11/17 02:31:25;;;;;;;;;26.50;23.50;;;;;;;;114796;1203;25637;-58
2022/11/17 02:34:07;;;;;;;;;26.50;24.00;;;;;;;;114782;1203;25788;-57
2022/11/17 02:36:44;;;;;;;;;29.00;24.00;;;;;;;;114814;1202;24644;-57
2022/11/17 02:39:19;;;;;;;;;26.50;23.00;;;;;;;;114807;1203;25611;-57
2022/11/17 02:41:54;;;;;;;;;26.50;22.50;;;;;;;;114819;1203;26427;-57
2022/11/17 02:44:28;;;;;;;;;28.00;22.00;;;;;;;;114889;1208;26081;-57
2022/11/17 02:47:08;;;;;;;;;24.00;20.00;;;;;;;;114958;1208;24873;-57
2022/11/17 02:49:40;;;;;;;;;26.00;22.00;;;;;;;;114952;1200;24916;-57
2022/11/17 02:52:08;;;;;;;;;31.00;20.50;;;;;;;;114933;1199;25689;-57
2022/11/17 02:54:37;;;;;;;;;26.00;20.33;;;;;;;;114938;1206;24728;-58
2022/11/17 02:57:05;;;;;;;;;28.00;22.00;;;;;;;;114965;1200;25107;-57
2022/11/17 02:59:45;;;;;;;;;29.67;23.00;;;;;;;;114936;1203;24777;-57
2022/11/17 03:02:19;;;;;;;;;30.00;22.50;;;;;;;;114965;1196;25473;-57
2022/11/17 03:04:59;;;;;;;;;25.00;19.50;;;;;;;;114940;1203;24669;-57
2022/11/17 03:07:59;;;;;;;;;27.00;21.00;;;;;;;;114951;1203;25489;-57
2022/11/17 03:11:02;;;;;;;;;21.33;20.00;;;;;;;;114784;1208;25969;-57
2022/11/17 03:13:57;;;;;;;;;23.00;19.50;;;;;;;;114927;1201;25203;-57
2022/11/17 03:16:56;;;;;;;;;23.00;20.00;;;;;;;;114851;1200;25627;-57
2022/11/17 03:19:45;;;;;;;;;26.50;23.50;;;;;;;;114935;1200;25020;-59
2022/11/17 03:22:21;;;;;;;;;21.00;13.00;;;;;;;;114875;1203;25594;-59
2022/11/17 03:25:01;;;;;;;;;27.33;21.33;;;;;;;;114813;1192;25144;-60
2022/11/17 03:27:36;;;;;;;;;26.50;22.00;;;;;;;;114809;1200;25290;-57
2022/11/17 03:30:07;;;;;;;;;21.50;19.00;;;;;;;;114810;1199;25564;-58
2022/11/17 03:32:42;;;;;;;;;23.00;19.00;;;;;;;;114785;1206;25250;-58
2022/11/17 03:35:14;;;;;;;;;23.00;18.50;;;;;;;;114819;1203;24720;-58
2022/11/17 03:37:48;;;;;;;;;22.67;20.67;;;;;;;;114941;1203;24961;-58
2022/11/17 03:40:20;;;;;;;;;26.00;19.00;;;;;;;;114956;1203;25316;-58
2022/11/17 03:42:52;;;;;;;;;23.00;18.00;;;;;;;;114906;1196;25115;-59
2022/11/17 03:45:24;;;;;;;;;22.00;21.00;;;;;;;;114962;1201;25207;-59
2022/11/17 03:48:00;;;;;;;;;23.00;22.67;;;;;;;;114947;1208;25012;-58
2022/11/17 03:50:37;;;;;;;;;26.00;21.00;;;;;;;;114941;1199;25479;-58
2022/11/17 03:53:05;;;;;;;;;25.00;20.00;;;;;;;;115002;1203;24986;-58
2022/11/17 03:56:01;;;;;;;;;18.00;17.00;;;;;;;;114960;1196;25123;-58
2022/11/17 03:58:32;;;;;;;;;21.00;17.00;;;;;;;;114929;1200;25383;-59
2022/11/17 04:01:02;;;;;;;;;20.00;19.00;;;;;;;;114864;1200;24925;-58
2022/11/17 04:03:32;;;;;;;;;18.00;17.33;;;;;;;;114952;1203;25121;-58
2022/11/17 04:06:01;;;;;;;;;21.00;19.00;;;;;;;;114934;1203;25417;-59
2022/11/17 04:08:30;;;;;;;;;22.67;21.00;;;;;;;;114956;1200;25125;-58
2022/11/17 04:16:32;;;;;;;;;25.33;21.00;;;;;;;;114905;1203;26295;-59
2022/11/17 04:19:01;;;;;;;;;23.00;15.00;;;;;;;;114969;1200;24961;-58
2022/11/17 04:21:29;;;;;;;;;21.00;14.50;;;;;;;;114957;1203;24956;-58
2022/11/17 04:23:57;;;;;;;;;23.00;21.00;;;;;;;;114924;1208;25555;-60
2022/11/17 04:29:13;;;;;;;;;19.33;17.33;;;;;;;;114904;1203;25003;-59
2022/11/17 04:31:41;;;;;;;;;18.00;17.00;;;;;;;;114972;1203;25713;-60
2022/11/17 04:34:10;;;;;;;;;23.00;19.50;;;;;;;;114860;1200;25649;-59
2022/11/17 04:36:43;;;;;;;;;20.00;18.00;;;;;;;;114892;1203;25554;-59
2022/11/17 04:39:13;;;;;;;;;19.67;19.00;;;;;;;;114932;1205;25621;-58
2022/11/17 04:41:56;;;;;;;;;22.33;19.67;;;;;;;;114961;1199;26323;-59
2022/11/17 04:44:30;;;;;;;;;24.50;20.50;;;;;;;;114964;1200;25566;-60
2022/11/17 04:47:00;;;;;;;;;24.00;18.50;;;;;;;;114892;1203;25298;-61
2022/11/17 04:49:30;;;;;;;;;28.50;24.00;;;;;;;;114931;1203;24942;-60
2022/11/17 04:51:59;;;;;;;;;24.50;20.50;;;;;;;;114941;1199;25511;-60
2022/11/17 04:54:27;;;;;;;;;24.00;19.00;;;;;;;;114921;1203;24848;-60
2022/11/17 04:56:56;;;;;;;;;29.00;25.00;;;;;;;;114947;1208;25048;-60
2022/11/17 04:59:24;;;;;;;;;23.00;22.00;;;;;;;;114935;1200;24848;-60
2022/11/17 05:01:53;;;;;;;;;20.00;19.00;;;;;;;;114977;1200;24904;-59
2022/11/17 05:07:09;;;;;;;;;16.00;11.00;;;;;;;;114911;1200;25955;-57
2022/11/17 05:09:37;;;;;;;;;21.50;19.50;;;;;;;;114888;1208;25089;-57
2022/11/17 05:14:54;;;;;;;;;24.00;21.50;;;;;;;;114988;1203;25563;-60
2022/11/17 05:17:22;;;;;;;;;27.00;22.00;;;;;;;;114965;1203;25328;-59
2022/11/17 05:19:51;;;;;;;;;27.00;19.00;;;;;;;;114934;1200;25606;-59
2022/11/17 05:25:09;;;;;;;;;25.00;21.00;;;;;;;;114931;1203;24942;-59
2022/11/17 05:27:37;;;;;;;;;25.00;20.67;;;;;;;;114900;1195;24714;-60
2022/11/17 05:30:07;;;;;;;;;23.00;19.00;;;;;;;;114911;1200;25097;-61
2022/11/17 05:32:36;;;;;;;;;23.50;19.50;;;;;;;;114980;1200;24901;-61
2022/11/17 05:35:05;;;;;;;;;19.00;14.00;;;;;;;;114954;1208;25311;-61
2022/11/17 05:37:33;;;;;;;;;17.00;14.00;;;;;;;;114987;1198;25116;-62
2022/11/17 05:40:01;;;;;;;;;21.00;16.50;;;;;;;;114918;1203;24823;-61
2022/11/17 05:42:30;;;;;;;;;21.00;19.00;;;;;;;;114896;1200;26211;-61
2022/11/17 05:44:58;;;;;;;;;26.33;20.67;;;;;;;;114898;1194;25086;-63
2022/11/17 05:47:27;;;;;;;;;24.00;18.00;;;;;;;;114860;1206;25133;-61
2022/11/17 05:49:55;;;;;;;;;22.50;17.00;;;;;;;;114940;1204;25376;-61
2022/11/17 05:52:23;;;;;;;;;17.50;15.50;;;;;;;;114864;1196;25112;-61
2022/11/17 05:54:51;;;;;;;;;27.00;19.33;;;;;;;;114913;1203;25930;-61
2022/11/17 05:57:27;;;;;;;;;18.00;17.67;;;;;;;;114866;1200;25248;-61
2022/11/17 05:59:59;;;;;;;;;24.00;19.00;;;;;;;;114853;1196;25254;-61
2022/11/17 06:02:31;;;;;;;;;17.33;15.00;;;;;;;;114906;1199;26349;-60
2022/11/17 06:05:00;;;;;;;;;27.33;18.33;;;;;;;;114835;1201;25320;-61
2022/11/17 06:07:28;;;;;;;;;21.50;17.00;;;;;;;;114915;1192;25097;-61
2022/11/17 06:09:56;;;;;;;;;17.50;14.00;;;;;;;;114924;1200;26431;-61
2022/11/17 06:12:25;;;;;;;;;16.50;15.00;;;;;;;;114834;1208;25289;-61
2022/11/17 06:14:53;;;;;;;;;20.50;17.50;;;;;;;;114860;1196;24828;-61
2022/11/17 06:17:30;;;;;;;;;18.00;17.00;;;;;;;;114909;1203;25866;-62
2022/11/17 06:20:07;;;;;;;;;19.00;18.50;;;;;;;;114867;1200;25138;-62
2022/11/17 06:22:35;;;;;;;;;20.00;17.00;;;;;;;;114950;1203;25373;-62
2022/11/17 06:25:06;;;;;;;;;14.00;14.00;;;;;;;;114858;1208;25552;-61
2022/11/17 06:27:35;;;;;;;;;20.50;16.50;;;;;;;;114788;1203;25415;-67
2022/11/17 06:30:05;;;;;;;;;19.50;16.00;;;;;;;;114884;1203;24885;-67
2022/11/17 06:32:36;;;;;;;;;19.67;18.00;;;;;;;;114866;1203;25496;-63
2022/11/17 06:35:06;;;;;;;;;16.00;16.00;;;;;;;;114896;1208;24660;-62
2022/11/17 06:37:34;;;;;;;;;20.00;18.50;;;;;;;;114824;1200;25386;-61
2022/11/17 06:40:03;;;;;;;;;18.00;17.00;;;;;;;;114856;1200;24927;-60
2022/11/17 06:45:18;;;;;;;;;20.00;16.00;;;;;;;;114853;1203;25009;-61
2022/11/17 06:47:47;;;;;;;;;18.00;14.50;;;;;;;;114915;1207;24875;-62
2022/11/17 06:50:16;;;;;;;;;16.00;15.00;;;;;;;;114878;1202;25854;-60
2022/11/17 06:52:44;;;;;;;;;16.00;15.00;;;;;;;;114876;1200;24647;-58
2022/11/17 06:55:12;;;;;;;;;21.00;17.00;;;;;;;;114904;1203;25604;-58
2022/11/17 06:57:41;;;;;;;;;19.50;14.00;;;;;;;;114918;1208;24660;-58
2022/11/17 07:00:10;;;;;;;;;23.00;17.50;;;;;;;;114920;1200;25114;-58
2022/11/17 07:02:38;;;;;;;;;21.50;17.50;;;;;;;;114922;1207;24906;-57
2022/11/17 07:05:07;;;;;;;;;23.00;18.00;;;;;;;;114904;1199;24948;-58
2022/11/17 07:07:36;;;;;;;;;28.00;21.00;;;;;;;;114888;1203;24835;-58
2022/11/17 07:10:05;;;;;;;;;31.00;24.00;;;;;;;;114935;1203;26240;-56
2022/11/17 07:12:33;;;;;;;;;28.00;23.00;;;;;;;;114877;1207;25455;-57
2022/11/17 07:15:02;;;;;;;;;25.00;21.50;;;;;;;;114852;1207;25589;-58
2022/11/17 07:17:31;;;;;;;;;28.50;21.00;;;;;;;;114850;1197;25177;-57
2022/11/17 07:19:59;;;;;;;;;31.00;26.00;;;;;;;;114939;1203;25282;-57
2022/11/17 07:22:28;;;;;;;;;26.00;21.00;;;;;;;;114871;1194;24870;-59
2022/11/17 07:24:57;;;;;;;;;28.00;19.00;;;;;;;;114930;1202;25512;-58
2022/11/17 07:27:25;;;;;;;;;26.00;22.33;;;;;;;;114957;1203;25146;-57
2022/11/17 07:29:54;;;;;;;;;19.00;16.00;;;;;;;;114933;1208;25225;-58
2022/11/17 07:32:22;;;;;;;;;30.50;23.50;;;;;;;;114923;1203;25355;-57
2022/11/17 07:34:51;;;;;;;;;26.00;19.00;;;;;;;;114916;1200;25214;-58
2022/11/17 07:37:20;;;;;;;;;23.00;21.00;;;;;;;;114868;1196;25046;-58
2022/11/17 07:39:48;;;;;;;;;26.00;20.00;;;;;;;;114851;1208;24934;-58
2022/11/17 07:42:16;;;;;;;;;29.00;25.00;;;;;;;;114840;1203;25245;-58
2022/11/17 07:44:45;;;;;;;;;33.75;22.50;;;;;;;;114897;1206;25229;-57
2022/11/17 07:47:13;;;;;;;;;23.50;21.00;;;;;;;;114914;1200;25024;-57
2022/11/17 07:49:42;;;;;;;;;25.67;21.67;;;;;;;;114907;1203;24867;-58
2022/11/17 07:52:10;;;;;;;;;23.50;19.00;;;;;;;;114937;1200;25421;-58
2022/11/17 07:54:39;;;;;;;;;31.50;21.50;;;;;;;;114957;1203;25556;-58
2022/11/17 07:57:07;;;;;;;;;30.00;20.00;;;;;;;;114959;1196;25874;-58
2022/11/17 07:59:36;;;;;;;;;20.00;18.50;;;;;;;;114952;1203;25023;-58
2022/11/17 08:02:05;;;;;;;;;21.50;18.00;;;;;;;;114921;1203;26238;-58
2022/11/17 08:04:33;;;;;;;;;27.00;21.00;;;;;;;;114944;1206;24995;-58
2022/11/17 08:07:01;;;;;;;;;20.50;19.00;;;;;;;;114920;1200;25067;-57
2022/11/17 08:09:30;;;;;;;;;24.00;20.67;;;;;;;;114962;1200;24788;-57
2022/11/17 08:11:58;;;;;;;;;28.00;22.50;;;;;;;;114897;1203;25323;-57
2022/11/17 08:14:28;;;;;;;;;20.00;16.00;;;;;;;;114957;1203;25063;-57
2022/11/17 08:16:57;;;;;;;;;25.00;18.00;;;;;;;;114971;1199;24867;-58
2022/11/17 08:19:25;;;;;;;;;23.50;16.50;;;;;;;;114917;1203;25349;-58
2022/11/17 08:21:53;;;;;;;;;24.00;20.00;;;;;;;;114855;1203;25262;-59
2022/11/17 08:24:22;;;;;;;;;19.00;16.00;;;;;;;;114958;1200;25617;-59
2022/11/17 08:26:52;;;;;;;;;25.00;22.00;;;;;;;;114885;1203;25654;-57
2022/11/17 08:29:20;;;;;;;;;20.33;17.00;;;;;;;;114950;1195;24864;-58
2022/11/17 08:31:49;;;;;;;;;26.50;21.00;;;;;;;;114912;1203;26335;-57
2022/11/17 08:34:18;;;;;;;;;23.50;19.50;;;;;;;;114914;1197;25364;-58
2022/11/17 08:36:46;;;;;;;;;22.00;20.00;;;;;;;;114904;1199;25638;-58
2022/11/17 08:39:14;;;;;;;;;19.67;17.00;;;;;;;;114890;1202;25468;-56
2022/11/17 08:41:43;;;;;;;;;22.00;18.00;;;;;;;;114952;1203;25732;-56
2022/11/17 08:44:11;;;;;;;;;20.00;14.00;;;;;;;;114871;1200;25239;-58
2022/11/17 08:46:39;;;;;;;;;23.00;20.00;;;;;;;;114947;1203;24874;-57
2022/11/17 08:49:08;;;;;;;;;18.00;16.33;;;;;;;;114845;1208;24984;-57
2022/11/17 08:51:36;;;;;;;;;22.00;17.50;;;;;;;;114937;1203;24818;-57
2022/11/17 08:54:05;;;;;;;;;18.00;16.00;;;;;;;;114965;1208;25132;-58
2022/11/17 08:56:33;;;;;;;;;19.00;17.33;;;;;;;;114929;1203;25703;-58
2022/11/17 08:59:02;;;;;;;;;15.50;15.00;;;;;;;;114818;1203;26366;-57
2022/11/17 09:01:30;;;;;;;;;18.00;16.00;;;;;;;;114946;1208;24858;-58
2022/11/17 09:03:59;;;;;;;;;27.00;19.00;;;;;;;;114941;1197;25593;-58
2022/11/17 09:06:27;;;;;;;;;18.00;14.00;;;;;;;;114951;1199;25278;-57
2022/11/17 09:08:56;;;;;;;;;18.00;15.00;;;;;;;;114917;1208;25064;-57
2022/11/17 09:11:25;;;;;;;;;17.00;13.00;;;;;;;;114918;1200;26157;-58
2022/11/17 09:13:54;;;;;;;;;22.33;19.33;;;;;;;;114922;1200;25287;-58
2022/11/17 09:16:24;;;;;;;;;23.00;20.00;;;;;;;;114896;1206;25153;-58
2022/11/17 09:18:57;;;;;;;;;24.50;20.00;;;;;;;;114830;1204;25471;-57
2022/11/17 09:21:26;;;;;;;;;21.00;18.00;;;;;;;;114849;1198;25360;-57
2022/11/17 09:23:54;;;;;;;;;22.00;18.00;;;;;;;;114861;1203;25287;-58
2022/11/17 09:26:23;;;;;;;;;17.00;17.00;;;;;;;;114971;1197;26107;-59
2022/11/17 09:28:51;;;;;;;;;26.00;21.00;;;;;;;;114887;1203;25411;-62
2022/11/17 09:31:21;;;;;;;;;19.00;17.50;;;;;;;;114938;1196;25628;-59
2022/11/17 09:33:50;;;;;;;;;22.00;19.00;;;;;;;;114840;1201;25416;-61
2022/11/17 09:36:18;;;;;;;;;24.00;16.00;;;;;;;;114890;1203;25439;-66
2022/11/17 09:38:47;;;;;;;;;24.00;16.00;;;;;;;;114849;1200;25415;-70
2022/11/17 09:41:15;;;;;;;;;22.00;21.00;;;;;;;;114899;1200;24937;-66
2022/11/17 09:44:06;;;;;;;;;17.33;13.33;;;;;;;;114953;1200;24992;-60
2022/11/17 09:46:54;;;;;;;;;24.00;18.00;;;;;;;;114906;1202;25639;-60
2022/11/17 09:49:33;;;;;;;;;18.00;17.00;;;;;;;;114904;1199;24836;-61
2022/11/17 09:52:18;;;;;;;;;19.00;16.00;;;;;;;;114748;1200;25627;-61
2022/11/17 09:54:56;;;;;;;;;18.00;15.00;;;;;;;;114882;1199;25740;-56
2022/11/17 09:57:38;;;;;;;;;22.67;21.67;;;;;;;;114851;1196;25475;-59
2022/11/17 10:00:18;;;;;;;;;23.00;20.00;;;;;;;;114941;1200;24955;-57
2022/11/17 10:02:47;;;;;;;;;23.50;18.50;;;;;;;;114941;1196;25467;-58
2022/11/17 10:05:34;;;;;;;;;23.50;19.50;;;;;;;;114880;1203;25672;-67
2022/11/17 10:08:32;;;;;;;;;20.00;18.00;;;;;;;;114875;1203;25091;-65
2022/11/17 10:11:34;;;;;;;;;27.00;18.00;;;;;;;;114826;1195;25512;-61
2022/11/17 10:14:09;;;;;;;;;25.00;17.00;;;;;;;;114971;1200;24884;-59
2022/11/17 10:16:41;;;;;;;;;21.00;19.00;;;;;;;;114833;1200;25383;-60
2022/11/17 10:19:12;;;;;;;;;24.00;14.00;;;;;;;;114848;1199;25300;-57
2022/11/17 10:21:41;;;;;;;;;23.00;19.00;;;;;;;;114817;1200;25172;-58
2022/11/17 10:24:09;;;;;;;;;20.50;19.00;;;;;;;;114862;1200;25701;-58
2022/11/17 10:26:48;;;;;;;;;19.00;17.00;;;;;;;;114759;1200;25099;-58
2022/11/17 10:29:20;;;;;;;;;;;;;;;;;;114781;1199;25584;-58
2022/11/17 10:31:49;;;;;;;;;27.33;23.00;;;;;;;;114855;1200;25374;-58
2022/11/17 10:34:32;;;;;;;;;18.00;15.00;;;;;;;;114911;1200;25392;-58
2022/11/17 10:37:11;;;;;;;;;16.00;15.00;;;;;;;;114827;1200;26399;-60
2022/11/17 10:39:41;;;;;;;;;34.00;23.00;;;;;;;;114836;1203;24824;-59
2022/11/17 10:42:23;;;;;;;;;24.00;16.50;;;;;;;;114825;1200;24912;-59
2022/11/17 10:44:54;;;;;;;;;20.00;20.00;;;;;;;;114788;1199;24947;-59
2022/11/17 10:47:38;;;;;;;;;28.50;22.00;;;;;;;;114868;1204;26105;-61
2022/11/17 10:50:27;;;;;;;;;28.00;21.00;;;;;;;;114921;1206;25663;-61
2022/11/17 10:53:29;;;;;;;;;24.00;19.50;;;;;;;;114900;1206;25607;-58
2022/11/17 10:56:06;;;;;;;;;22.00;18.00;;;;;;;;114935;1199;24998;-60
2022/11/17 10:58:57;;;;;;;;;25.00;18.00;;;;;;;;114890;1200;24831;-62
2022/11/17 11:01:35;;;;;;;;;18.67;17.00;;;;;;;;114944;1207;25225;-61
2022/11/17 11:04:06;;;;;;;;;23.00;19.50;;;;;;;;114910;1200;25650;-55
2022/11/17 11:06:34;;;;;;;;;26.00;20.00;;;;;;;;114850;1205;25609;-55
2022/11/17 11:09:22;;;;;;;;;20.00;18.00;;;;;;;;114905;1197;25663;-55
2022/11/17 11:11:57;;;;;;;;;23.00;20.50;;;;;;;;114834;1203;24946;-54
2022/11/17 11:14:44;;;;;;;;;24.00;19.00;;;;;;;;114947;1200;25605;-54
2022/11/17 11:17:15;;;;;;;;;23.00;20.00;;;;;;;;116023;1193;25455;-55
2022/11/17 11:19:52;;;;;;;;;20.00;17.00;;;;;;;;114948;1196;25092;-54
2022/11/17 11:22:54;;;;;;;;;23.50;20.00;;;;;;;;114915;1203;25736;-54
2022/11/17 11:25:43;;;;;;;;;28.00;20.00;;;;;;;;114944;1203;25471;-54
2022/11/17 11:28:18;;;;;;;;;27.00;21.00;;;;;;;;114943;1200;25046;-54
2022/11/17 11:31:09;;;;;;;;;26.00;23.00;;;;;;;;114952;1200;25151;-53
2022/11/17 11:33:55;;;;;;;;;23.00;17.00;;;;;;;;114878;1206;26026;-54
2022/11/17 11:36:32;;;;;;;;;18.00;15.00;;;;;;;;114862;1200;25684;-54
2022/11/17 11:39:35;;;;;;;;;20.00;19.00;;;;;;;;114913;1204;24866;-54
2022/11/17 11:42:08;;;;;;;;;24.67;16.67;;;;;;;;114922;1197;25666;-54
2022/11/17 11:44:48;;;;;;;;;25.00;20.50;;;;;;;;114920;1199;25743;-55
2022/11/17 11:47:32;;;;;;;;;24.00;19.00;;;;;;;;114923;1200;24781;-54
2022/11/17 11:50:09;;;;;;;;;25.00;20.00;;;;;;;;114923;1194;25378;-53
2022/11/17 11:52:39;;;;;;;;;27.00;22.00;;;;;;;;114917;1206;24943;-54
2022/11/17 11:55:20;;;;;;;;;19.50;19.00;;;;;;;;114912;1200;24790;-54
2022/11/17 11:57:55;;;;;;;;;23.50;21.00;;;;;;;;114916;1208;25003;-54
2022/11/17 12:00:24;;;;;;;;;24.00;20.00;;;;;;;;114929;1203;25633;-54
2022/11/17 12:02:57;;;;;;;;;24.00;20.50;;;;;;;;114952;1200;25070;-54
2022/11/17 12:05:38;;;;;;;;;28.00;21.00;;;;;;;;114916;1200;24832;-54
2022/11/17 12:08:13;;;;;;;;;22.00;19.00;;;;;;;;114901;1206;25416;-54
2022/11/17 12:11:58;;;;;;;;;19.00;17.00;;;;;;;;114925;1196;25125;-54
2022/11/17 12:13:56;;;;;;;;;28.00;19.00;;;;;;;;114970;1208;24761;-54
2022/11/17 12:16:34;;;;;;;;;24.00;17.00;;;;;;;;114776;1200;25608;-54
2022/11/17 12:19:41;;;;;;;;;21.00;17.00;;;;;;;;114846;1203;25063;-54
2022/11/17 12:22:32;;;;;;;;;23.33;20.67;;;;;;;;114944;1208;25008;-56
2022/11/17 12:25:21;;;;;;;;;22.33;18.00;;;;;;;;114872;1206;25577;-55
2022/11/17 12:27:51;;;;;;;;;22.67;19.00;;;;;;;;114864;1200;25343;-53
2022/11/17 12:30:31;;;;;;;;;20.33;17.00;;;;;;;;114882;1206;25467;-54
2022/11/17 12:33:03;;;;;;;;;25.00;18.50;;;;;;;;114866;1193;25470;-54
2022/11/17 12:35:33;;;;;;;;;23.00;20.00;;;;;;;;114897;1208;25694;-54
2022/11/17 12:38:14;;;;;;;;;24.50;18.50;;;;;;;;114926;1203;25136;-54
2022/11/17 12:40:45;;;;;;;;;24.00;19.00;;;;;;;;114927;1207;25369;-54
2022/11/17 12:43:24;;;;;;;;;19.00;15.00;;;;;;;;114859;1200;24824;-55
2022/11/17 12:46:13;;;;;;;;;19.00;18.00;;;;;;;;114823;1200;24851;-55
2022/11/17 12:48:55;;;;;;;;;17.50;16.50;;;;;;;;114799;1200;24971;-56
2022/11/17 12:51:54;;;;;;;;;15.00;13.50;;;;;;;;114866;1204;24977;-56
2022/11/17 12:54:55;;;;;;;;;19.00;18.00;;;;;;;;114905;1200;25225;-55
2022/11/17 12:57:31;;;;;;;;;19.50;17.00;;;;;;;;114746;1207;26104;-55
2022/11/17 13:00:09;;;;;;;;;25.00;21.50;;;;;;;;114832;1196;25337;-54
2022/11/17 13:02:46;;;;;;;;;21.00;17.67;;;;;;;;114874;1196;25639;-55
2022/11/17 13:05:18;;;;;;;;;25.00;19.00;;;;;;;;114834;1200;25691;-55
2022/11/17 13:07:47;;;;;;;;;23.67;21.67;;;;;;;;114912;1204;24789;-55
2022/11/17 13:10:28;;;;;;;;;24.00;23.00;;;;;;;;114885;1207;25628;-55
2022/11/17 13:13:19;;;;;;;;;24.00;23.00;;;;;;;;114857;1200;25178;-54
2022/11/17 13:15:55;;;;;;;;;26.00;21.50;;;;;;;;114896;1200;25644;-55
2022/11/17 13:18:37;;;;;;;;;26.00;24.00;;;;;;;;114883;1206;25479;-56
2022/11/17 13:21:25;;;;;;;;;23.00;17.00;;;;;;;;114922;1200;24983;-54
2022/11/17 13:23:53;;;;;;;;;24.00;23.50;;;;;;;;114917;1204;25993;-54
2022/11/17 13:26:34;;;;;;;;;16.50;16.50;;;;;;;;114847;1197;25323;-55
2022/11/17 13:29:14;;;;;;;;;21.00;18.00;;;;;;;;114900;1208;24902;-55
2022/11/17 13:31:42;;;;;;;;;25.00;21.50;;;;;;;;114879;1203;24912;-54
2022/11/17 13:34:20;;;;;;;;;24.50;22.50;;;;;;;;114875;1208;25271;-55
2022/11/17 13:36:55;;;;;;;;;27.00;22.50;;;;;;;;114901;1203;25354;-55
2022/11/17 13:39:26;;;;;;;;;23.00;19.00;;;;;;;;114869;1200;25431;-55
2022/11/17 13:41:55;;;;;;;;;20.00;20.00;;;;;;;;114891;1203;25198;-56
2022/11/17 13:44:26;;;;;;;;;22.50;20.50;;;;;;;;114829;1204;25054;-57
2022/11/17 13:46:54;;;;;;;;;16.00;13.67;;;;;;;;114891;1206;25096;-54
2022/11/17 13:49:33;;;;;;;;;28.00;24.00;;;;;;;;114911;1203;24936;-54
2022/11/17 13:52:04;;;;;;;;;22.00;19.00;;;;;;;;114889;1204;25171;-55
2022/11/17 13:54:32;;;;;;;;;18.00;17.00;;;;;;;;114867;1203;25330;-54
2022/11/17 13:57:07;;;;;;;;;23.50;15.50;;;;;;;;114860;1200;24813;-55
2022/11/17 13:59:37;;;;;;;;;18.00;14.00;;;;;;;;114869;1207;25569;-55
2022/11/17 14:02:15;;;;;;;;;23.33;22.33;;;;;;;;114849;1196;24714;-55
2022/11/17 14:05:08;;;;;;;;;23.00;20.00;;;;;;;;114818;1207;24740;-55
2022/11/17 14:07:38;;;;;;;;;27.00;20.00;;;;;;;;114863;1203;25693;-55
2022/11/17 14:10:33;;;;;;;;;20.50;18.00;;;;;;;;114830;1200;24698;-55
2022/11/17 14:13:01;;;;;;;;;22.00;16.00;;;;;;;;114866;1203;25249;-55
2022/11/17 14:15:35;;;;;;;;;21.00;19.00;;;;;;;;114901;1205;25383;-55
2022/11/17 14:18:28;;;;;;;;;24.00;21.00;;;;;;;;114917;1193;25051;-55
2022/11/17 14:21:15;;;;;;;;;21.00;15.00;;;;;;;;114905;1203;25437;-55
2022/11/17 14:23:44;;;;;;;;;21.00;20.00;;;;;;;;114844;1196;24952;-55
2022/11/17 14:26:17;;;;;;;;;25.00;18.50;;;;;;;;114909;1203;25637;-54
2022/11/17 14:28:47;;;;;;;;;26.00;21.50;;;;;;;;114871;1208;24887;-54
2022/11/17 14:31:16;;;;;;;;;23.00;20.00;;;;;;;;114932;1203;24781;-55
2022/11/17 14:33:44;;;;;;;;;18.00;18.00;;;;;;;;114806;1200;25644;-55
2022/11/17 14:36:15;;;;;;;;;20.00;18.00;;;;;;;;114813;1200;24975;-54
2022/11/17 14:38:44;;;;;;;;;22.00;19.00;;;;;;;;114784;1203;24916;-56
2022/11/17 14:41:17;;;;;;;;;21.00;17.00;;;;;;;;114871;1200;25655;-55
2022/11/17 14:43:46;;;;;;;;;21.50;21.50;;;;;;;;114915;1201;24699;-53
2022/11/17 14:46:23;;;;;;;;;26.33;18.00;;;;;;;;114851;1201;24885;-54
2022/11/17 14:48:52;;;;;;;;;22.00;18.50;;;;;;;;114857;1196;24855;-55
2022/11/17 14:51:21;;;;;;;;;18.00;16.50;;;;;;;;114873;1203;25432;-54
2022/11/17 14:53:49;;;;;;;;;22.00;20.00;;;;;;;;114937;1196;25617;-56
2022/11/17 14:56:20;;;;;;;;;26.50;20.00;;;;;;;;114905;1203;25045;-55
2022/11/17 14:58:53;;;;;;;;;16.00;15.00;;;;;;;;114872;1203;25465;-54
2022/11/17 15:01:28;;;;;;;;;27.00;23.00;;;;;;;;114892;1208;25454;-52
2022/11/17 15:04:01;;;;;;;;;21.00;19.00;;;;;;;;114904;1203;26269;-53
2022/11/17 15:06:47;;;;;;;;;19.50;19.50;;;;;;;;114869;1199;25029;-54
2022/11/17 15:09:16;;;;;;;;;27.00;22.00;;;;;;;;114841;1203;25527;-55